Time;durP1;ratioP1;P1;durP2;ratioP2;P2;SDS_P1;SDS_P2;PMS_P1;PMS_P2;Temp;Humidity;BMP_temperature;BMP_pressure;BME280_temperature;BME280_humidity;BME280_pressure;Samples;Min_cycle;Max_cycle;Signal;HPM_P1;HPM_P2
2023/10/06 00:01:27;;;;;;;15.93;8.05;;;;;;;;;;10331769;28;20027;-63
2023/10/06 00:06:27;;;;;;;13.13;7.78;;;;;;;;;;10331387;28;20018;-63
2023/10/06 00:11:34;;;;;;;12.63;7.75;;;;;;;;;;10330748;28;20430;-63
2023/10/06 00:16:40;;;;;;;12.73;7.43;;;;;;;;;;10332106;28;20085;-63
2023/10/06 00:21:45;;;;;;;11.57;7.20;;;;;;;;;;10331221;28;20026;-63
2023/10/06 00:26:46;;;;;;;12.35;7.63;;;;;;;;;;10331287;28;20026;-63
2023/10/06 00:31:48;;;;;;;13.18;7.43;;;;;;;;;;10330359;28;20038;-63
2023/10/06 00:36:56;;;;;;;10.63;7.10;;;;;;;;;;10326755;28;20084;-63
2023/10/06 00:42:04;;;;;;;15.50;7.57;;;;;;;;;;10330117;28;20421;-64
2023/10/06 00:47:06;;;;;;;15.50;7.60;;;;;;;;;;10327060;28;20041;-65
2023/10/06 00:52:12;;;;;;;23.65;7.90;;;;;;;;;;10329472;28;20390;-65
2023/10/06 00:57:17;;;;;;;14.60;7.07;;;;;;;;;;10329374;28;20390;-62
2023/10/06 01:02:18;;;;;;;18.05;8.68;;;;;;;;;;10329186;28;20109;-64
2023/10/06 01:07:19;;;;;;;16.98;8.10;;;;;;;;;;10328862;28;20026;-64
2023/10/06 01:12:20;;;;;;;13.02;8.30;;;;;;;;;;10328771;28;20064;-64
2023/10/06 01:17:20;;;;;;;15.40;8.35;;;;;;;;;;10328732;28;20057;-64
2023/10/06 01:22:28;;;;;;;14.15;8.35;;;;;;;;;;10327766;28;20038;-63
2023/10/06 01:27:29;;;;;;;12.88;8.07;;;;;;;;;;10323421;28;20038;-62
2023/10/06 01:32:30;;;;;;;15.88;8.55;;;;;;;;;;10326692;28;20042;-63
2023/10/06 01:37:31;;;;;;;15.30;8.07;;;;;;;;;;10327808;28;20126;-64
2023/10/06 01:42:31;;;;;;;15.13;8.15;;;;;;;;;;10328225;28;20034;-64
2023/10/06 01:47:32;;;;;;;12.05;8.27;;;;;;;;;;10327871;28;20030;-64
2023/10/06 01:52:33;;;;;;;14.32;8.27;;;;;;;;;;10327731;28;20041;-64
2023/10/06 01:57:33;;;;;;;15.77;8.18;;;;;;;;;;10327367;28;20065;-65
2023/10/06 02:02:34;;;;;;;13.10;8.10;;;;;;;;;;10327088;28;20061;-63
2023/10/06 02:07:35;;;;;;;11.40;7.47;;;;;;;;;;10327109;28;20026;-65
2023/10/06 02:12:37;;;;;;;11.90;7.53;;;;;;;;;;10326747;28;20054;-64
2023/10/06 02:17:40;;;;;;;12.88;7.47;;;;;;;;;;10334081;28;20054;-63
2023/10/06 02:22:40;;;;;;;11.98;6.70;;;;;;;;;;10340682;28;20178;-63
2023/10/06 02:27:46;;;;;;;13.48;7.53;;;;;;;;;;10336910;28;20161;-62
2023/10/06 02:32:47;;;;;;;11.07;6.95;;;;;;;;;;10338810;28;20034;-63
2023/10/06 02:37:49;;;;;;;11.40;7.85;;;;;;;;;;10336670;28;20030;-64
2023/10/06 02:42:52;;;;;;;10.38;6.65;;;;;;;;;;10339723;28;20026;-63
2023/10/06 02:47:57;;;;;;;15.15;6.97;;;;;;;;;;10340372;28;20348;-64
2023/10/06 02:52:59;;;;;;;9.93;6.50;;;;;;;;;;10339310;28;20041;-65
2023/10/06 02:58:00;;;;;;;14.52;6.53;;;;;;;;;;10340006;28;20073;-64
2023/10/06 03:03:12;;;;;;;7.93;6.18;;;;;;;;;;10339568;28;20073;-64
2023/10/06 03:08:12;;;;;;;10.75;6.00;;;;;;;;;;10340017;28;20026;-64
2023/10/06 03:13:43;;;;;;;7.40;6.00;;;;;;;;;;10339512;28;20046;-65
2023/10/06 03:18:44;;;;;;;9.90;5.90;;;;;;;;;;10339755;28;20050;-64
2023/10/06 03:23:47;;;;;;;11.40;5.72;;;;;;;;;;10339686;28;20038;-64
2023/10/06 03:28:50;;;;;;;11.18;5.40;;;;;;;;;;10336115;28;20382;-61
2023/10/06 03:33:55;;;;;;;16.40;5.68;;;;;;;;;;10332718;28;20386;-64
2023/10/06 03:38:56;;;;;;;6.80;5.13;;;;;;;;;;10326745;28;20027;-64
2023/10/06 03:44:00;;;;;;;10.18;5.30;;;;;;;;;;10333120;28;20030;-64
2023/10/06 03:49:03;;;;;;;8.27;4.82;;;;;;;;;;10332299;28;20479;-64
2023/10/06 03:54:04;;;;;;;7.82;5.22;;;;;;;;;;10332670;28;20034;-64
2023/10/06 03:59:12;;;;;;;7.57;5.50;;;;;;;;;;10331889;28;20390;-64
2023/10/06 04:04:22;;;;;;;9.70;5.40;;;;;;;;;;10331560;28;20390;-60
2023/10/06 04:09:28;;;;;;;7.35;5.38;;;;;;;;;;10331881;28;20041;-61
2023/10/06 04:14:31;;;;;;;9.20;5.07;;;;;;;;;;10331154;28;20058;-61
2023/10/06 04:19:34;;;;;;;10.02;4.97;;;;;;;;;;10331417;28;20026;-61
2023/10/06 04:24:34;;;;;;;9.07;5.88;;;;;;;;;;10331366;28;20034;-60
2023/10/06 04:29:36;;;;;;;8.45;4.68;;;;;;;;;;10330563;28;20030;-62
2023/10/06 04:34:38;;;;;;;8.50;5.10;;;;;;;;;;10330442;28;20023;-63
2023/10/06 04:39:39;;;;;;;8.43;4.72;;;;;;;;;;10326682;28;20069;-64
2023/10/06 04:44:39;;;;;;;9.50;5.60;;;;;;;;;;10329494;28;20100;-63
2023/10/06 04:49:41;;;;;;;6.90;5.18;;;;;;;;;;10325551;28;20112;-64
2023/10/06 04:54:42;;;;;;;7.93;5.28;;;;;;;;;;10330116;28;20089;-65
2023/10/06 04:59:44;;;;;;;8.98;5.20;;;;;;;;;;10330543;28;20466;-64
2023/10/06 05:04:44;;;;;;;10.18;4.72;;;;;;;;;;10329483;28;20053;-65
2023/10/06 05:09:46;;;;;;;8.48;4.75;;;;;;;;;;10329039;28;20027;-64
2023/10/06 05:14:49;;;;;;;7.45;4.78;;;;;;;;;;10328770;28;20073;-64
2023/10/06 05:19:50;;;;;;;6.50;4.78;;;;;;;;;;10328583;28;20057;-66
2023/10/06 05:24:51;;;;;;;9.50;4.82;;;;;;;;;;10328930;28;20034;-65
2023/10/06 05:29:51;;;;;;;9.50;4.35;;;;;;;;;;10328083;28;20458;-61
2023/10/06 05:34:52;;;;;;;6.32;4.32;;;;;;;;;;10328075;28;20038;-62
2023/10/06 05:39:53;;;;;;;8.13;4.90;;;;;;;;;;10328458;28;20386;-62
2023/10/06 05:44:55;;;;;;;8.40;3.83;;;;;;;;;;10327202;28;20185;-64
2023/10/06 05:49:59;;;;;;;5.78;4.40;;;;;;;;;;10323065;28;20085;-62
2023/10/06 05:55:00;;;;;;;6.15;4.70;;;;;;;;;;10327769;28;20026;-62
2023/10/06 06:00:01;;;;;;;9.77;4.65;;;;;;;;;;10324460;28;20382;-61
2023/10/06 06:05:04;;;;;;;6.63;4.45;;;;;;;;;;10328172;28;20042;-61
2023/10/06 06:10:05;;;;;;;8.18;4.20;;;;;;;;;;10327088;28;20157;-62
2023/10/06 06:15:08;;;;;;;7.80;3.97;;;;;;;;;;10327327;28;20030;-60
2023/10/06 06:20:09;;;;;;;5.68;4.07;;;;;;;;;;10326084;28;20136;-62
2023/10/06 06:25:10;;;;;;;6.47;4.28;;;;;;;;;;10320474;28;20027;-63
2023/10/06 06:30:11;;;;;;;4.63;4.18;;;;;;;;;;10325994;28;20022;-64
2023/10/06 06:35:13;;;;;;;11.90;4.45;;;;;;;;;;10326364;28;20057;-63
2023/10/06 06:40:14;;;;;;;9.02;4.70;;;;;;;;;;10326156;28;20038;-63
2023/10/06 06:45:15;;;;;;;5.72;4.30;;;;;;;;;;10326509;28;20034;-64
2023/10/06 06:50:17;;;;;;;7.35;4.53;;;;;;;;;;10325939;28;20041;-63
2023/10/06 06:55:20;;;;;;;12.48;4.90;;;;;;;;;;10311650;28;20790;-63
2023/10/06 07:00:24;;;;;;;7.47;4.50;;;;;;;;;;10299959;28;20524;-62
2023/10/06 07:05:26;;;;;;;9.57;4.43;;;;;;;;;;10325334;28;20026;-62
2023/10/06 07:10:27;;;;;;;11.52;4.75;;;;;;;;;;10326161;28;20505;-62
2023/10/06 07:15:29;;;;;;;8.07;5.20;;;;;;;;;;10325491;28;20029;-62
2023/10/06 07:20:30;;;;;;;12.70;4.95;;;;;;;;;;10325729;28;20062;-62
2023/10/06 07:25:31;;;;;;;9.77;4.28;;;;;;;;;;10325373;28;20030;-62
2023/10/06 07:30:34;;;;;;;10.13;4.45;;;;;;;;;;10325522;28;20466;-62
2023/10/06 07:35:41;;;;;;;8.65;4.95;;;;;;;;;;10324984;28;20323;-61
2023/10/06 07:40:42;;;;;;;8.93;4.68;;;;;;;;;;10325889;28;20046;-62
2023/10/06 07:45:43;;;;;;;7.38;5.20;;;;;;;;;;10325150;28;20037;-61
2023/10/06 07:50:44;;;;;;;13.32;4.85;;;;;;;;;;10325231;28;20045;-61
2023/10/06 07:55:45;;;;;;;10.30;4.88;;;;;;;;;;10324925;28;20446;-61
2023/10/06 08:00:45;;;;;;;10.43;4.80;;;;;;;;;;10324649;28;20038;-61
2023/10/06 08:05:46;;;;;;;5.00;4.28;;;;;;;;;;10323119;28;20034;-62
2023/10/06 08:10:49;;;;;;;5.35;4.32;;;;;;;;;;10323028;28;20046;-62
2023/10/06 08:15:50;;;;;;;6.53;4.85;;;;;;;;;;10323351;28;20106;-61
2023/10/06 08:20:53;;;;;;;6.45;4.10;;;;;;;;;;10324026;28;20028;-62
2023/10/06 08:25:56;;;;;;;9.75;4.63;;;;;;;;;;10323886;28;20033;-62
2023/10/06 08:30:58;;;;;;;10.57;4.85;;;;;;;;;;10324381;28;20038;-62
2023/10/06 08:36:00;;;;;;;8.13;4.10;;;;;;;;;;10324118;28;20038;-62
2023/10/06 08:41:02;;;;;;;8.75;4.90;;;;;;;;;;10322573;28;20058;-62
2023/10/06 08:46:03;;;;;;;5.60;4.28;;;;;;;;;;10323482;28;20614;-62
2023/10/06 08:51:11;;;;;;;7.38;4.38;;;;;;;;;;10323763;28;20245;-63
2023/10/06 08:56:14;;;;;;;6.78;3.83;;;;;;;;;;10322965;28;20026;-62
2023/10/06 09:01:18;;;;;;;5.90;4.10;;;;;;;;;;10321448;28;20216;-62
2023/10/06 09:06:19;;;;;;;11.02;4.20;;;;;;;;;;10321268;28;20376;-62
2023/10/06 09:11:40;;;;;;;8.32;4.25;;;;;;;;;;10321480;28;20054;-62
2023/10/06 09:16:50;;;;;;;6.25;3.90;;;;;;;;;;10321508;28;20030;-62
2023/10/06 09:22:06;;;;;;;7.90;3.97;;;;;;;;;;10321662;28;20022;-63
2023/10/06 09:27:21;;;;;;;7.40;4.00;;;;;;;;;;10321554;28;20483;-63
2023/10/06 09:32:22;;;;;;;5.97;3.85;;;;;;;;;;10322288;28;20026;-63
2023/10/06 09:37:24;;;;;;;7.93;4.35;;;;;;;;;;10321583;28;20037;-63
2023/10/06 09:42:29;;;;;;;6.68;4.28;;;;;;;;;;10321281;28;20466;-63
2023/10/06 09:47:32;;;;;;;7.93;4.00;;;;;;;;;;10321968;28;20045;-62
2023/10/06 09:52:34;;;;;;;7.53;4.07;;;;;;;;;;10320528;28;20033;-62
2023/10/06 09:57:35;;;;;;;6.70;3.72;;;;;;;;;;10321089;28;20026;-61
2023/10/06 10:02:40;;;;;;;7.15;3.88;;;;;;;;;;10319755;28;20023;-62
2023/10/06 10:07:41;;;;;;;12.35;4.47;;;;;;;;;;10319843;28;20038;-62
2023/10/06 10:13:22;;;;;;;5.55;4.00;;;;;;;;;;10320312;28;20418;-62
2023/10/06 10:18:35;;;;;;;14.07;3.95;;;;;;;;;;10319151;28;20426;-62
2023/10/06 10:23:40;;;;;;;4.97;3.90;;;;;;;;;;10318927;28;20032;-62
2023/10/06 10:28:40;;;;;;;9.18;3.78;;;;;;;;;;10320619;28;20038;-64
2023/10/06 10:33:41;;;;;;;10.90;3.95;;;;;;;;;;10320065;28;20069;-62
2023/10/06 10:38:43;;;;;;;8.90;3.80;;;;;;;;;;10324337;28;20185;-63
2023/10/06 10:43:48;;;;;;;6.15;3.47;;;;;;;;;;10327396;28;20023;-63
2023/10/06 10:48:49;;;;;;;6.35;3.65;;;;;;;;;;10325794;28;20057;-62
2023/10/06 10:53:52;;;;;;;6.90;3.30;;;;;;;;;;10327760;28;20473;-62
2023/10/06 10:58:54;;;;;;;9.75;3.30;;;;;;;;;;10328096;28;20046;-63
2023/10/06 11:04:13;;;;;;;7.55;3.35;;;;;;;;;;10327291;28;20026;-63
2023/10/06 11:09:29;;;;;;;12.55;3.65;;;;;;;;;;10327666;28;20034;-65
2023/10/06 11:14:30;;;;;;;7.60;3.53;;;;;;;;;;10326250;28;20457;-67
2023/10/06 11:19:33;;;;;;;14.50;3.33;;;;;;;;;;10327067;28;20034;-65
2023/10/06 11:24:34;;;;;;;7.93;4.22;;;;;;;;;;10321489;28;20034;-64
2023/10/06 11:29:35;;;;;;;7.82;3.30;;;;;;;;;;10323447;28;20030;-63
2023/10/06 11:34:36;;;;;;;7.95;3.75;;;;;;;;;;10325274;28;20467;-63
2023/10/06 11:39:37;;;;;;;10.57;3.30;;;;;;;;;;10326131;28;20027;-62
2023/10/06 11:44:38;;;;;;;5.93;3.50;;;;;;;;;;10326366;28;20045;-63
2023/10/06 11:49:57;;;;;;;5.15;3.45;;;;;;;;;;10324633;28;20340;-64
2023/10/06 11:54:58;;;;;;;12.48;4.10;;;;;;;;;;10325564;28;20026;-63
2023/10/06 11:59:59;;;;;;;9.55;4.00;;;;;;;;;;10325321;28;20030;-64
2023/10/06 12:05:09;;;;;;;6.68;3.25;;;;;;;;;;10325105;28;20150;-64
2023/10/06 12:10:10;;;;;;;5.78;3.67;;;;;;;;;;10325576;28;20034;-64
2023/10/06 12:15:14;;;;;;;7.68;3.33;;;;;;;;;;10324293;28;20129;-64
2023/10/06 12:20:16;;;;;;;12.07;3.58;;;;;;;;;;10325098;28;20022;-65
2023/10/06 12:25:16;;;;;;;7.70;2.85;;;;;;;;;;10325970;28;20417;-64
2023/10/06 12:30:18;;;;;;;5.32;3.05;;;;;;;;;;10325521;28;20080;-64
2023/10/06 12:35:18;;;;;;;8.07;3.00;;;;;;;;;;10324902;28;20458;-63
2023/10/06 12:40:19;;;;;;;8.80;3.30;;;;;;;;;;10325046;28;20030;-63
2023/10/06 12:45:20;;;;;;;9.07;3.92;;;;;;;;;;10324027;28;20434;-66
2023/10/06 12:50:21;;;;;;;8.77;3.72;;;;;;;;;;10324099;28;20054;-64
2023/10/06 12:55:24;;;;;;;8.82;3.13;;;;;;;;;;10323714;28;20029;-64
2023/10/06 13:00:27;;;;;;;14.30;3.75;;;;;;;;;;10323882;28;20030;-64
2023/10/06 13:05:28;;;;;;;6.85;3.00;;;;;;;;;;10324313;28;20104;-63
2023/10/06 13:10:29;;;;;;;7.35;3.50;;;;;;;;;;10323221;28;20045;-63
2023/10/06 13:15:29;;;;;;;8.23;3.67;;;;;;;;;;10323712;28;20030;-64
2023/10/06 13:20:30;;;;;;;10.32;3.80;;;;;;;;;;10324090;28;20041;-64
2023/10/06 13:25:31;;;;;;;6.70;3.50;;;;;;;;;;10323851;28;20026;-63
2023/10/06 13:30:34;;;;;;;5.50;3.10;;;;;;;;;;10323755;28;20074;-64
2023/10/06 13:35:34;;;;;;;7.05;3.50;;;;;;;;;;10323299;28;20463;-64
2023/10/06 13:40:37;;;;;;;11.57;3.75;;;;;;;;;;10322312;28;20034;-63
2023/10/06 13:45:50;;;;;;;10.43;4.00;;;;;;;;;;10322713;28;20034;-63
2023/10/06 13:50:52;;;;;;;7.68;3.90;;;;;;;;;;10322708;28;20037;-63
2023/10/06 13:55:56;;;;;;;6.97;3.33;;;;;;;;;;10322249;28;20023;-63
2023/10/06 14:00:58;;;;;;;6.20;3.55;;;;;;;;;;10321130;28;20101;-64
2023/10/06 14:05:59;;;;;;;19.85;3.97;;;;;;;;;;10321216;28;20038;-64
2023/10/06 14:11:00;;;;;;;7.32;3.50;;;;;;;;;;10319709;28;20054;-64
2023/10/06 14:21:06;;;;;;;7.32;3.28;;;;;;;;;;10319686;28;20331;-65
2023/10/06 14:26:10;;;;;;;7.40;3.10;;;;;;;;;;10321563;28;20445;-64
2023/10/06 14:31:23;;;;;;;6.60;3.38;;;;;;;;;;10321136;28;20369;-63
2023/10/06 14:36:28;;;;;;;10.70;3.03;;;;;;;;;;10321500;28;20039;-63
2023/10/06 14:46:51;;;;;;;9.45;3.22;;;;;;;;;;10310435;28;20031;-63
2023/10/06 14:51:55;;;;;;;11.25;3.20;;;;;;;;;;10319274;28;20402;-61
2023/10/06 14:57:00;;;;;;;6.78;3.35;;;;;;;;;;10319630;28;20037;-63
2023/10/06 15:02:09;;;;;;;7.57;3.60;;;;;;;;;;10319663;28;20026;-64
2023/10/06 15:07:14;;;;;;;11.75;3.20;;;;;;;;;;10318844;28;20031;-63
2023/10/06 15:12:14;;;;;;;7.40;3.60;;;;;;;;;;10318861;28;20042;-63
2023/10/06 15:17:16;;;;;;;14.35;3.20;;;;;;;;;;10317662;28;20043;-63
2023/10/06 15:22:17;;;;;;;5.45;3.20;;;;;;;;;;10319496;28;20058;-62
2023/10/06 15:27:17;;;;;;;8.68;3.30;;;;;;;;;;10326257;28;20026;-61
2023/10/06 15:32:18;;;;;;;22.13;4.97;;;;;;;;;;10326900;28;20494;-61
2023/10/06 15:37:19;;;;;;;11.30;4.00;;;;;;;;;;10326622;28;20482;-61
2023/10/06 15:42:20;;;;;;;8.80;4.35;;;;;;;;;;10326452;28;20513;-61
2023/10/06 15:47:22;;;;;;;9.02;4.35;;;;;;;;;;10325576;28;20061;-62
2023/10/06 15:52:24;;;;;;;9.38;3.88;;;;;;;;;;10325225;28;20461;-62
2023/10/06 15:57:24;;;;;;;6.45;3.55;;;;;;;;;;10325206;28;20110;-62
2023/10/06 16:02:25;;;;;;;13.90;3.63;;;;;;;;;;10324453;28;20026;-61
2023/10/06 16:07:25;;;;;;;6.88;3.55;;;;;;;;;;10325747;28;20042;-61
2023/10/06 16:12:26;;;;;;;12.18;3.70;;;;;;;;;;10324983;28;20430;-61
2023/10/06 16:17:27;;;;;;;7.55;3.47;;;;;;;;;;10325278;28;20031;-61
2023/10/06 16:22:28;;;;;;;6.45;3.83;;;;;;;;;;10325243;28;20543;-61
2023/10/06 16:27:29;;;;;;;4.95;3.63;;;;;;;;;;10325378;28;20070;-61
2023/10/06 16:32:31;;;;;;;11.77;3.85;;;;;;;;;;10324768;28;20030;-61
2023/10/06 16:37:32;;;;;;;14.43;4.15;;;;;;;;;;10324153;28;20031;-62
2023/10/06 16:42:33;;;;;;;9.57;3.70;;;;;;;;;;10323962;28;20023;-61
2023/10/06 16:47:33;;;;;;;8.27;3.75;;;;;;;;;;10322424;28;20056;-62
2023/10/06 16:52:37;;;;;;;10.00;3.35;;;;;;;;;;10323379;28;20031;-61
2023/10/06 16:57:38;;;;;;;19.65;4.43;;;;;;;;;;10324462;28;20026;-61
2023/10/06 17:02:39;;;;;;;16.33;3.95;;;;;;;;;;10323494;28;20037;-61
2023/10/06 17:07:40;;;;;;;13.32;3.83;;;;;;;;;;10322945;28;20077;-61
2023/10/06 17:12:41;;;;;;;9.05;3.33;;;;;;;;;;10323448;28;20090;-62
2023/10/06 17:17:44;;;;;;;8.77;4.07;;;;;;;;;;10322590;28;20027;-61
2023/10/06 17:22:44;;;;;;;13.10;4.05;;;;;;;;;;10322191;28;20030;-61
2023/10/06 17:27:47;;;;;;;7.93;3.78;;;;;;;;;;10321698;28;20033;-62
2023/10/06 17:32:48;;;;;;;6.53;3.92;;;;;;;;;;10320534;28;20061;-61
2023/10/06 17:37:50;;;;;;;6.75;4.00;;;;;;;;;;10321964;28;20034;-61
2023/10/06 17:42:53;;;;;;;14.65;4.80;;;;;;;;;;10321764;28;20062;-61
2023/10/06 17:47:54;;;;;;;7.00;4.30;;;;;;;;;;10321262;28;20038;-61
2023/10/06 17:52:57;;;;;;;12.57;4.07;;;;;;;;;;10320521;28;20370;-61
2023/10/06 17:57:58;;;;;;;6.40;4.00;;;;;;;;;;10320511;28;20042;-61
2023/10/06 18:02:59;;;;;;;10.70;4.18;;;;;;;;;;10319912;28;20104;-61
2023/10/06 18:08:01;;;;;;;9.43;4.18;;;;;;;;;;10320380;28;20038;-61
2023/10/06 18:13:02;;;;;;;12.82;4.43;;;;;;;;;;10320777;28;20287;-61
2023/10/06 18:18:02;;;;;;;7.35;4.13;;;;;;;;;;10321084;28;20056;-61
2023/10/06 18:23:04;;;;;;;7.03;3.70;;;;;;;;;;10321306;28;20104;-60
2023/10/06 18:28:06;;;;;;;9.13;3.50;;;;;;;;;;10321118;28;20161;-60
2023/10/06 18:33:06;;;;;;;9.75;4.68;;;;;;;;;;10320397;28;20038;-60
2023/10/06 18:38:07;;;;;;;8.30;4.30;;;;;;;;;;10320703;28;20034;-60
2023/10/06 18:43:07;;;;;;;8.15;3.97;;;;;;;;;;10319585;28;20033;-60
2023/10/06 18:48:08;;;;;;;9.18;4.35;;;;;;;;;;10320954;28;20031;-61
2023/10/06 18:53:09;;;;;;;10.85;4.57;;;;;;;;;;10319838;28;20022;-61
2023/10/06 18:58:09;;;;;;;10.57;5.00;;;;;;;;;;10321381;28;20489;-60
2023/10/06 19:03:11;;;;;;;10.45;4.65;;;;;;;;;;10327623;28;20026;-60
2023/10/06 19:08:14;;;;;;;8.85;4.80;;;;;;;;;;10327454;28;20142;-60
2023/10/06 19:13:14;;;;;;;10.10;4.97;;;;;;;;;;10324947;28;20414;-60
2023/10/06 19:18:15;;;;;;;9.98;5.03;;;;;;;;;;10326582;28;20030;-61
2023/10/06 19:23:15;;;;;;;8.30;5.15;;;;;;;;;;10326614;28;20050;-60
2023/10/06 19:28:16;;;;;;;13.52;5.47;;;;;;;;;;10326657;28;20030;-60
2023/10/06 19:33:16;;;;;;;11.25;5.18;;;;;;;;;;10326132;28;20034;-61
2023/10/06 19:38:17;;;;;;;12.38;5.32;;;;;;;;;;10326583;28;20037;-61
2023/10/06 19:43:21;;;;;;;17.63;5.57;;;;;;;;;;10325593;28;20022;-61
2023/10/06 19:48:22;;;;;;;26.77;5.78;;;;;;;;;;10324993;28;20031;-61
2023/10/06 19:53:24;;;;;;;22.65;6.22;;;;;;;;;;10323806;28;20067;-63
2023/10/06 19:58:25;;;;;;;12.75;5.72;;;;;;;;;;10325366;28;20096;-63
2023/10/06 20:03:25;;;;;;;10.52;5.65;;;;;;;;;;10315376;28;20505;-64
2023/10/06 20:08:26;;;;;;;12.25;5.43;;;;;;;;;;10250902;28;20030;-63
2023/10/06 20:13:27;;;;;;;14.13;5.68;;;;;;;;;;10310054;28;20047;-63
2023/10/06 20:18:27;;;;;;;14.45;5.32;;;;;;;;;;10330971;28;20022;-64
2023/10/06 20:23:28;;;;;;;15.70;5.60;;;;;;;;;;10328926;28;20113;-61
2023/10/06 20:28:28;;;;;;;27.17;5.53;;;;;;;;;;10323515;28;20026;-64
2023/10/06 20:33:31;;;;;;;45.63;6.30;;;;;;;;;;10330239;28;20486;-61
2023/10/06 20:38:32;;;;;;;37.53;4.82;;;;;;;;;;10328634;28;20034;-60
2023/10/06 20:43:32;;;;;;;27.73;6.05;;;;;;;;;;10331399;28;20034;-62
2023/10/06 20:48:33;;;;;;;24.42;4.85;;;;;;;;;;10331549;28;20050;-61
2023/10/06 20:53:35;;;;;;;14.07;4.80;;;;;;;;;;10331052;28;20057;-60
2023/10/06 20:58:36;;;;;;;20.83;4.88;;;;;;;;;;10330556;28;20030;-60
2023/10/06 21:03:37;;;;;;;12.20;5.25;;;;;;;;;;10331426;28;20053;-62
2023/10/06 21:08:40;;;;;;;12.77;4.82;;;;;;;;;;10329221;28;20382;-64
2023/10/06 21:13:41;;;;;;;13.48;4.78;;;;;;;;;;10331773;28;20422;-62
2023/10/06 21:18:43;;;;;;;12.88;4.40;;;;;;;;;;10329329;28;20105;-61
2023/10/06 21:23:43;;;;;;;15.68;5.40;;;;;;;;;;10328007;28;20482;-62
2023/10/06 21:28:44;;;;;;;15.50;4.45;;;;;;;;;;10328583;28;20030;-61
2023/10/06 21:33:45;;;;;;;16.00;5.05;;;;;;;;;;10328676;28;20022;-62
2023/10/06 21:38:46;;;;;;;12.73;4.80;;;;;;;;;;10328562;28;20034;-61
2023/10/06 21:43:47;;;;;;;12.70;4.88;;;;;;;;;;10328207;28;20030;-62
2023/10/06 21:48:47;;;;;;;14.10;4.80;;;;;;;;;;10327311;28;20489;-61
2023/10/06 21:53:48;;;;;;;12.95;5.03;;;;;;;;;;10327751;28;20218;-61
2023/10/06 21:58:49;;;;;;;9.25;4.90;;;;;;;;;;10328197;28;20034;-62
2023/10/06 22:03:50;;;;;;;11.27;5.22;;;;;;;;;;10327171;28;20466;-62
2023/10/06 22:08:51;;;;;;;8.63;5.20;;;;;;;;;;10327397;28;20137;-62
2023/10/06 22:13:52;;;;;;;10.38;4.78;;;;;;;;;;10326851;28;20060;-62
2023/10/06 22:18:53;;;;;;;9.40;4.90;;;;;;;;;;10327837;28;20042;-62
2023/10/06 22:23:53;;;;;;;12.43;5.03;;;;;;;;;;10327495;28;20022;-62
2023/10/06 22:28:54;;;;;;;8.80;4.78;;;;;;;;;;10327637;28;20038;-62
2023/10/06 22:33:55;;;;;;;6.68;4.28;;;;;;;;;;10330533;28;20053;-62
2023/10/06 22:38:56;;;;;;;11.80;5.47;;;;;;;;;;10335810;28;20045;-62
2023/10/06 22:43:57;;;;;;;7.63;4.78;;;;;;;;;;10335463;28;20386;-63
2023/10/06 22:48:59;;;;;;;10.50;4.65;;;;;;;;;;10335383;28;20356;-62
2023/10/06 22:54:00;;;;;;;8.20;4.30;;;;;;;;;;10333463;28;20045;-63
2023/10/06 22:59:00;;;;;;;8.45;5.10;;;;;;;;;;10335029;28;20031;-63
2023/10/06 23:04:01;;;;;;;12.98;4.95;;;;;;;;;;10334802;28;20096;-62
2023/10/06 23:09:02;;;;;;;9.77;4.60;;;;;;;;;;10334577;28;20397;-62
2023/10/06 23:14:08;;;;;;;9.70;4.57;;;;;;;;;;10333472;28;20054;-62
2023/10/06 23:19:12;;;;;;;7.80;4.68;;;;;;;;;;10333952;28;20026;-62
2023/10/06 23:24:15;;;;;;;10.00;4.30;;;;;;;;;;10333276;28;20022;-61
2023/10/06 23:29:19;;;;;;;7.60;4.78;;;;;;;;;;10334060;28;20019;-62
2023/10/06 23:34:20;;;;;;;6.68;4.30;;;;;;;;;;10333711;28;20104;-62
2023/10/06 23:39:25;;;;;;;7.03;4.68;;;;;;;;;;10332619;28;20085;-62
2023/10/06 23:44:29;;;;;;;8.15;4.68;;;;;;;;;;10333290;28;20057;-63
2023/10/06 23:49:31;;;;;;;8.95;4.85;;;;;;;;;;10332719;28;20034;-62
2023/10/06 23:54:33;;;;;;;8.73;4.95;;;;;;;;;;10332640;28;20033;-62
2023/10/06 23:59:36;;;;;;;8.35;4.53;;;;;;;;;;10332144;28;20386;-63
